Hlavní strana
METAR-TAF:

METAR-TAF

Letiště :

Letiště Oslo

Oslo, Norsko

zeměpisná šířka: 60-12N, zeměpisná délka: 011-05E, výška: 208 m

Aktuální stav počasí

Zpráva byla vytvořena před 37 minutami, v 04:20 UTC
Západní vítr 3 kt, proměnlivý mezi jihojihozápadním a severoseverozápadním
Teplota 5°C
Vlhkost vzduchu 70%
Tlak 1016 hPa
Viditelnost 10 km a více
Žádná oblačnost pod 1500 m, nevyskytují se cumulonimby.

METAR: ENGM 180420Z 27003KT 210V330 CAVOK 05/00 Q1016 NOSIG

Čas: 06:57 (04:57 UTC)

Předpověď počasí

Předpověď platná od 18 v 00 UTC do 18 v 24 UTC
Jihojihozápadní vítr 5 kt
Viditelnost 10 km a více
Skoro jasno ve výšce 800 ft
Pravděpodobnost 30%
od 18 v 00 UTC do 18 v 06 UTC
Viditelnost: 1200 m
Oblačno až skoro zataženo ve výšce 200 ft
chuchvalce mlhy

TAF: ENGM 1800/1824 20005KT 9999 FEW008 PROB30 1800/1806 1200 BCFG BKN002

Stav a předpovědi počasí z více než 4 000 letišť (zprávy METAR a TAF).

Červené a žluté tečky na mapě představují dostupné meteorologické stanice.

Když kurzor umístíte na tečku, zobrazí se název stanice.

Pak kliknutím zobrazíte stav a předpověď počasí.

Chcete-li změnit mapu, kliknutím na zelené tlačítko se znaménkem +mapu přiblížíte, kliknutím na zelené tlačítko se znaménkem – mapu oddálíte a kliknutím na zelené šipky přejdete na sousední mapy.


METAR-TAF: